Time;durP1;ratioP1;P1;durP2;ratioP2;P2;SDS_P1;SDS_P2;PMS_P1;PMS_P2;Temp;Humidity;BMP_temperature;BMP_pressure;BME280_temperature;BME280_humidity;BME280_pressure;Samples;Min_cycle;Max_cycle;Signal;HPM_P1;HPM_P2
2022/02/14 00:02:13;;;;;;;;;;;;;;;9.72;66.21;102514.31;5042891;27;102428;-48
2022/02/14 00:04:42;;;;;;;;;;;;;;;9.71;66.05;102512.66;5041445;27;102784;-48
2022/02/14 00:07:08;;;;;;;;;;;;;;;9.72;65.77;102508.88;5048026;27;103512;-48
2022/02/14 00:09:34;;;;;;;;;;;;;;;9.72;65.98;102503.44;5043198;27;104044;-49
2022/02/14 00:12:02;;;;;;;;;;;;;;;9.72;65.68;102508.88;5038863;27;102352;-48
2022/02/14 00:14:32;;;;;;;;;;;;;;;9.71;66.07;102501.78;5045044;27;102220;-49
2022/02/14 00:17:00;;;;;;;;;;;;;;;9.72;66.11;102503.44;5045293;27;102145;-49
2022/02/14 00:19:26;;;;;;;;;;;;;;;9.71;65.75;102500.94;5042623;27;104886;-48
2022/02/14 00:21:53;;;;;;;;;;;;;;;9.71;66.15;102501.78;5045916;27;102789;-49
2022/02/14 00:24:19;;;;;;;;;;;;;;;9.71;66.05;102496.34;5047240;27;102682;-49
2022/02/14 00:26:47;;;;;;;;;;;;;;;9.71;66.42;102490.91;5047027;27;102314;-49
2022/02/14 00:29:16;;;;;;;;;;;;;;;9.71;65.87;102485.47;5040266;27;103620;-49
2022/02/14 00:31:42;;;;;;;;;;;;;;;9.71;65.81;102487.34;5044949;27;102554;-48
2022/02/14 00:34:09;;;;;;;;;;;;;;;9.72;66.15;102480.84;5042654;27;102803;-49
2022/02/14 00:36:36;;;;;;;;;;;;;;;9.70;66.17;102480.22;5026731;27;102588;-49
2022/02/14 00:39:02;;;;;;;;;;;;;;;9.71;66.12;102473.75;5020640;27;104021;-49
2022/02/14 00:41:28;;;;;;;;;;;;;;;9.71;66.45;102474.59;5023665;27;102475;-49
2022/02/14 00:43:54;;;;;;;;;;;;;;;9.70;65.94;102472.94;5017556;27;102968;-48
2022/02/14 00:46:20;;;;;;;;;;;;;;;9.69;65.70;102471.25;5018169;27;102484;-49
2022/02/14 00:48:46;;;;;;;;;;;;;;;9.70;65.82;102472.06;5026040;27;103343;-49
2022/02/14 00:51:16;;;;;;;;;;;;;;;9.69;66.22;102463.09;5025457;27;102093;-49
2022/02/14 00:53:42;;;;;;;;;;;;;;;9.69;65.79;102463.09;5020966;27;102667;-49
2022/02/14 00:56:08;;;;;;;;;;;;;;;9.69;66.16;102460.38;5021644;27;102743;-49
2022/02/14 00:58:34;;;;;;;;;;;;;;;9.69;66.40;102456.81;5025141;27;104036;-49
2022/02/14 01:01:01;;;;;;;;;;;;;;;9.68;66.20;102447.84;5017032;27;103491;-49
2022/02/14 01:03:27;;;;;;;;;;;;;;;9.69;65.92;102454.94;5016595;27;103982;-50
2022/02/14 01:05:53;;;;;;;;;;;;;;;9.69;65.99;102452.22;5023125;27;103128;-51
2022/02/14 01:08:21;;;;;;;;;;;;;;;9.68;66.19;102453.28;5015709;27;104398;-48
2022/02/14 01:10:47;;;;;;;;;;;;;;;9.68;66.15;102445.13;5040063;27;103777;-49
2022/02/14 01:13:13;;;;;;;;;;;;;;;9.68;66.49;102447.84;5038775;27;102489;-48
2022/02/14 01:15:40;;;;;;;;;;;;;;;9.68;65.94;102450.56;5044023;27;102545;-49
2022/02/14 01:18:06;;;;;;;;;;;;;;;9.69;65.76;102449.50;5036937;27;103896;-49
2022/02/14 01:20:34;;;;;;;;;;;;;;;9.68;66.25;102445.13;5043606;27;102137;-49
2022/02/14 01:23:00;;;;;;;;;;;;;;;9.68;65.91;102442.41;5040942;27;102265;-51
2022/02/14 01:25:28;;;;;;;;;;;;;;;9.68;66.16;102441.59;5044913;27;102931;-49
2022/02/14 01:27:54;;;;;;;;;;;;;;;9.68;65.75;102438.88;5041218;27;104019;-50
2022/02/14 01:30:20;;;;;;;;;;;;;;;9.67;66.35;102438.03;5040972;27;102492;-49
2022/02/14 01:32:46;;;;;;;;;;;;;;;9.68;66.21;102431.53;5040717;27;102486;-52
2022/02/14 01:35:12;;;;;;;;;;;;;;;9.67;65.84;102424.44;5044220;27;103228;-49
2022/02/14 01:37:39;;;;;;;;;;;;;;;9.67;65.92;102429.88;5045511;27;104255;-48
2022/02/14 01:40:05;;;;;;;;;;;;;;;9.68;66.33;102436.16;5044305;27;103342;-48
2022/02/14 01:42:34;;;;;;;;;;;;;;;9.67;65.92;102423.63;5048837;27;101977;-49
2022/02/14 01:45:01;;;;;;;;;;;;;;;9.67;65.92;102426.34;5043742;27;102712;-48
2022/02/14 01:47:28;;;;;;;;;;;;;;;9.67;66.39;102421.72;5047757;27;104084;-49
2022/02/14 01:49:54;;;;;;;;;;;;;;;9.66;65.97;102411.88;5043572;27;102180;-49
2022/02/14 01:52:21;;;;;;;;;;;;;;;9.67;65.81;102413.56;5044557;27;103200;-49
2022/02/14 01:54:48;;;;;;;;;;;;;;;9.66;66.22;102411.06;5042740;27;102737;-49
2022/02/14 01:57:15;;;;;;;;;;;;;;;9.66;65.69;102409.16;5044333;27;103934;-49
2022/02/14 01:59:43;;;;;;;;;;;;;;;9.66;66.02;102416.50;5036626;27;103114;-50
2022/02/14 02:02:09;;;;;;;;;;;;;;;9.65;65.99;102404.78;5017786;27;102733;-49
2022/02/14 02:04:35;;;;;;;;;;;;;;;9.65;66.20;102404.78;5029987;27;103177;-49
2022/02/14 02:07:02;;;;;;;;;;;;;;;9.65;65.87;102404.78;5039130;27;103864;-49
2022/02/14 02:09:29;;;;;;;;;;;;;;;9.66;66.11;102405.63;5038869;27;103113;-49
2022/02/14 02:14:41;;;;;;;;;;;;;;;9.64;65.71;102403.13;5042494;27;102307;-49
2022/02/14 02:17:08;;;;;;;;;;;;;;;9.65;65.90;102401.25;5038122;27;103939;-49
2022/02/14 02:19:35;;;;;;;;;;;;;;;9.66;65.59;102405.63;5041799;27;102777;-49
2022/02/14 02:22:02;;;;;;;;;;;;;;;9.65;65.84;102399.34;5046577;27;103636;-49
2022/02/14 02:24:28;;;;;;;;;;;;;;;9.65;66.30;102393.09;5041932;27;102472;-49
2022/02/14 02:27:00;;;;;;;;;;;;;;;9.64;66.21;102392.25;5040467;27;103843;-49
2022/02/14 02:29:26;;;;;;;;;;;;;;;9.64;66.09;102392.25;5043674;27;102524;-48
2022/02/14 02:31:52;;;;;;;;;;;;;;;9.63;66.19;102391.44;5001436;28;102564;-49
2022/02/14 02:34:18;;;;;;;;;;;;;;;9.64;66.00;102392.25;5003493;28;102571;-49
2022/02/14 02:36:48;;;;;;;;;;;;;;;9.63;66.16;102385.16;5009369;28;104138;-48
2022/02/14 02:39:14;;;;;;;;;;;;;;;9.64;66.15;102392.25;5000620;27;102281;-49
2022/02/14 02:41:40;;;;;;;;;;;;;;;9.64;65.78;102389.53;5003055;28;102473;-48
2022/02/14 02:44:08;;;;;;;;;;;;;;;9.63;66.50;102388.72;5004300;28;102713;-49
2022/02/14 02:46:34;;;;;;;;;;;;;;;9.64;66.09;102386.81;5006270;27;103811;-49
2022/02/14 02:49:08;;;;;;;;;;;;;;;9.63;65.99;102385.16;4997059;28;102990;-49
2022/02/14 02:51:35;;;;;;;;;;;;;;;9.63;65.79;102382.47;5007110;28;103364;-49
2022/02/14 02:54:01;;;;;;;;;;;;;;;9.62;65.74;102389.75;5002937;28;102328;-48
2022/02/14 02:56:28;;;;;;;;;;;;;;;9.62;66.02;102389.75;5003586;28;103866;-49
2022/02/14 02:58:54;;;;;;;;;;;;;;;9.63;66.29;102387.88;5009272;28;102986;-48
2022/02/14 03:01:21;;;;;;;;;;;;;;;9.62;66.20;102392.47;5004807;27;102713;-49
2022/02/14 03:03:49;;;;;;;;;;;;;;;9.63;66.03;102387.88;5007829;28;102976;-49
2022/02/14 03:06:15;;;;;;;;;;;;;;;9.61;65.78;102379.94;4998111;27;103618;-49
2022/02/14 03:08:41;;;;;;;;;;;;;;;9.61;66.01;102388.09;5004429;28;103333;-49
2022/02/14 03:11:07;;;;;;;;;;;;;;;9.62;66.13;102378.06;5004501;27;102167;-49
2022/02/14 03:13:33;;;;;;;;;;;;;;;9.62;66.24;102383.50;5006947;27;102724;-49
2022/02/14 03:15:59;;;;;;;;;;;;;;;9.61;66.14;102387.28;5005500;27;104001;-49
2022/02/14 03:18:27;;;;;;;;;;;;;;;9.62;66.15;102383.50;5001492;27;102410;-49
2022/02/14 03:20:53;;;;;;;;;;;;;;;9.61;66.19;102384.56;4998211;27;102122;-48
2022/02/14 03:23:19;;;;;;;;;;;;;;;9.61;66.42;102384.56;5012209;27;102963;-49
2022/02/14 03:25:45;;;;;;;;;;;;;;;9.62;65.59;102383.50;5001067;27;104033;-49
2022/02/14 03:28:11;;;;;;;;;;;;;;;9.60;66.04;102380.19;5000496;27;103006;-49
2022/02/14 03:30:37;;;;;;;;;;;;;;;9.60;65.81;102382.91;5020257;27;102570;-49
2022/02/14 03:33:03;;;;;;;;;;;;;;;9.61;66.03;102381.84;5042978;27;102062;-49
2022/02/14 03:35:31;;;;;;;;;;;;;;;9.60;65.97;102380.19;5035957;27;103952;-49
2022/02/14 03:37:59;;;;;;;;;;;;;;;9.59;65.63;102373.91;5043524;27;102765;-49
2022/02/14 03:40:25;;;;;;;;;;;;;;;9.59;65.81;102378.50;5047564;27;102462;-49
2022/02/14 03:42:51;;;;;;;;;;;;;;;9.60;65.54;102380.19;5048747;27;103954;-49
2022/02/14 03:45:17;;;;;;;;;;;;;;;9.59;65.88;102373.91;5040087;27;104147;-49
2022/02/14 03:47:43;;;;;;;;;;;;;;;9.60;65.55;102372.03;5037607;27;102861;-48
2022/02/14 03:50:09;;;;;;;;;;;;;;;9.60;66.18;102374.75;5045802;27;102410;-50
2022/02/14 03:52:37;;;;;;;;;;;;;;;9.59;66.43;102370.34;5046193;27;102413;-49
2022/02/14 03:55:03;;;;;;;;;;;;;;;9.59;65.82;102362.19;5043888;27;108675;-49
2022/02/14 03:57:29;;;;;;;;;;;;;;;9.59;65.84;102371.19;5044108;27;102326;-49
2022/02/14 03:59:55;;;;;;;;;;;;;;;9.59;65.97;102367.63;5045529;27;102793;-49
2022/02/14 04:02:21;;;;;;;;;;;;;;;9.58;66.29;102355.94;5047190;27;102934;-48
2022/02/14 04:04:47;;;;;;;;;;;;;;;9.57;65.55;102359.72;5045558;27;103425;-49
2022/02/14 04:07:13;;;;;;;;;;;;;;;9.58;66.14;102357.81;5039812;27;102684;-48
2022/02/14 04:09:41;;;;;;;;;;;;;;;9.58;66.02;102360.53;5044216;27;102815;-49
2022/02/14 04:12:07;;;;;;;;;;;;;;;9.58;65.82;102363.25;5044744;27;102596;-48
2022/02/14 04:14:33;;;;;;;;;;;;;;;9.56;65.98;102352.63;5037083;27;103882;-48
2022/02/14 04:17:00;;;;;;;;;;;;;;;9.57;66.32;102356.16;5041955;27;102593;-49
2022/02/14 04:19:26;;;;;;;;;;;;;;;9.56;66.28;102351.78;5045445;27;102334;-49
2022/02/14 04:21:52;;;;;;;;;;;;;;;9.56;65.95;102357.22;5048262;27;103812;-49
2022/02/14 04:24:18;;;;;;;;;;;;;;;9.57;66.36;102353.44;5045127;27;104145;-49
2022/02/14 04:26:45;;;;;;;;;;;;;;;9.57;65.83;102356.16;5042796;27;102234;-49
2022/02/14 04:29:11;;;;;;;;;;;;;;;9.57;66.02;102364.31;5054880;27;102445;-48
2022/02/14 04:31:38;;;;;;;;;;;;;;;9.56;65.87;102352.63;5041076;27;102271;-49
2022/02/14 04:34:04;;;;;;;;;;;;;;;9.55;66.28;102356.38;5037928;27;103911;-49
2022/02/14 04:36:30;;;;;;;;;;;;;;;9.55;66.03;102352.81;5042728;27;102520;-50
2022/02/14 04:38:56;;;;;;;;;;;;;;;9.56;66.14;102354.50;5046743;27;102167;-49
2022/02/14 04:41:22;;;;;;;;;;;;;;;9.55;66.01;102355.53;5049998;27;102350;-49
2022/02/14 04:43:51;;;;;;;;;;;;;;;9.54;66.35;102359.31;5044653;27;103856;-49
2022/02/14 04:46:18;;;;;;;;;;;;;;;9.56;65.51;102362.66;5049835;27;102688;-49
2022/02/14 04:48:45;;;;;;;;;;;;;;;9.54;66.17;102359.31;5048199;27;102369;-48
2022/02/14 04:51:11;;;;;;;;;;;;;;;9.54;66.07;102359.31;5045481;27;103363;-49
2022/02/14 04:53:37;;;;;;;;;;;;;;;9.54;66.20;102359.31;5044623;27;103912;-49
2022/02/14 04:56:03;;;;;;;;;;;;;;;9.54;66.37;102359.31;5036369;27;102269;-49
2022/02/14 04:58:29;;;;;;;;;;;;;;;9.54;66.30;102353.88;5044819;27;102276;-49
2022/02/14 05:00:57;;;;;;;;;;;;;;;9.54;66.29;102362.03;5045130;27;102487;-48
2022/02/14 05:03:23;;;;;;;;;;;;;;;9.53;65.91;102358.50;5044337;27;103769;-49
2022/02/14 05:05:49;;;;;;;;;;;;;;;9.53;65.93;102353.06;5055745;27;102625;-48
2022/02/14 05:08:15;;;;;;;;;;;;;;;9.53;66.15;102360.38;5044427;27;102766;-49
2022/02/14 05:10:41;;;;;;;;;;;;;;;9.53;65.53;102358.50;5045310;27;103038;-49
2022/02/14 05:13:09;;;;;;;;;;;;;;;9.53;66.34;102368.53;5045453;27;103866;-49
2022/02/14 05:15:35;;;;;;;;;;;;;;;9.53;66.32;102369.38;5040890;27;102075;-48
2022/02/14 05:18:02;;;;;;;;;;;;;;;9.52;66.04;102366.84;5035974;27;102875;-49
2022/02/14 05:20:28;;;;;;;;;;;;;;;9.53;66.06;102363.09;5044263;27;102422;-49
2022/02/14 05:22:55;;;;;;;;;;;;;;;9.52;66.27;102369.56;5044191;27;104036;-48
2022/02/14 05:25:21;;;;;;;;;;;;;;;9.51;66.26;102366.03;5047092;27;104133;-49
2022/02/14 05:27:47;;;;;;;;;;;;;;;9.52;65.48;102369.56;5041588;27;102563;-49
2022/02/14 05:30:13;;;;;;;;;;;;;;;9.52;65.56;102375.00;5058826;27;102265;-49
2022/02/14 05:32:42;;;;;;;;;;;;;;;9.51;66.24;102370.63;5042237;27;105410;-49
2022/02/14 05:35:09;;;;;;;;;;;;;;;9.51;65.80;102376.06;5035149;27;102169;-49
2022/02/14 05:37:35;;;;;;;;;;;;;;;9.51;65.97;102382.34;5046069;27;102598;-50
2022/02/14 05:40:02;;;;;;;;;;;;;;;9.52;65.66;102380.44;5047603;27;102600;-49
2022/02/14 05:42:28;;;;;;;;;;;;;;;9.53;65.67;102379.41;5041801;27;103888;-49
2022/02/14 05:44:54;;;;;;;;;;;;;;;9.51;65.95;102382.34;5048241;27;102233;-48
2022/02/14 05:47:20;;;;;;;;;;;;;;;9.51;66.12;102386.94;5046849;27;102414;-49
2022/02/14 05:49:47;;;;;;;;;;;;;;;9.51;65.96;102393.22;5031991;27;103019;-49
2022/02/14 05:52:14;;;;;;;;;;;;;;;9.52;65.75;102400.31;5035115;27;103894;-49
2022/02/14 05:54:40;;;;;;;;;;;;;;;9.52;65.72;102400.31;5039255;27;102619;-50
2022/02/14 05:57:06;;;;;;;;;;;;;;;9.53;66.32;102395.72;5040723;27;102818;-49
2022/02/14 05:59:33;;;;;;;;;;;;;;;9.52;65.38;102399.47;5038559;27;102782;-49
2022/02/14 06:02:02;;;;;;;;;;;;;;;9.53;65.42;102391.09;5037829;27;103772;-49
2022/02/14 06:04:28;;;;;;;;;;;;;;;9.52;65.42;102394.03;5041528;27;102564;-49
2022/02/14 06:06:54;;;;;;;;;;;;;;;9.52;65.58;102394.03;5041233;27;103037;-49
2022/02/14 06:09:22;;;;;;;;;;;;;;;9.53;66.35;102399.25;5032550;27;102793;-49
2022/02/14 06:11:48;;;;;;;;;;;;;;;9.53;66.06;102396.53;5038897;27;104035;-48
2022/02/14 06:14:14;;;;;;;;;;;;;;;9.53;66.03;102404.69;5038674;27;104167;-49
2022/02/14 06:16:40;;;;;;;;;;;;;;;9.54;66.20;102402.81;5041857;27;103145;-48
2022/02/14 06:19:07;;;;;;;;;;;;;;;9.54;65.94;102403.63;5042483;27;102539;-49
2022/02/14 06:21:33;;;;;;;;;;;;;;;9.54;66.42;102403.63;5039796;27;103856;-50
2022/02/14 06:23:59;;;;;;;;;;;;;;;9.55;65.96;102399.84;5044440;27;102639;-49
2022/02/14 06:26:27;;;;;;;;;;;;;;;9.55;65.69;102404.47;5043078;27;102501;-49
2022/02/14 06:28:53;;;;;;;;;;;;;;;9.56;66.31;102403.44;5040205;27;102609;-50
2022/02/14 06:31:20;;;;;;;;;;;;;;;9.56;66.31;102392.56;5042509;27;104158;-50
2022/02/14 06:33:46;;;;;;;;;;;;;;;9.56;65.49;102390.66;5034664;27;102201;-50
2022/02/14 06:36:12;;;;;;;;;;;;;;;9.57;66.13;102397.75;5039122;27;102987;-49
2022/02/14 06:38:39;;;;;;;;;;;;;;;9.59;65.85;102400.25;5038369;27;102836;-49
2022/02/14 06:41:08;;;;;;;;;;;;;;;9.59;66.25;102389.38;5039625;27;104064;-49
2022/02/14 06:43:35;;;;;;;;;;;;;;;9.59;65.82;102394.81;5042360;27;102638;-49
2022/02/14 06:46:01;;;;;;;;;;;;;;;9.60;66.24;102396.50;5039255;27;103254;-49
2022/02/14 06:48:28;;;;;;;;;;;;;;;9.59;66.26;102394.81;5040182;27;102752;-51
2022/02/14 06:50:54;;;;;;;;;;;;;;;9.60;65.78;102396.50;5037114;27;103664;-49
2022/02/14 06:53:20;;;;;;;;;;;;;;;9.60;66.16;102401.94;5037324;27;102718;-55
2022/02/14 06:55:46;;;;;;;;;;;;;;;9.59;65.83;102390.22;5042742;27;105430;-51
2022/02/14 06:58:12;;;;;;;;;;;;;;;9.60;66.00;102391.88;5040676;27;103997;-49
2022/02/14 07:00:40;;;;;;;;;;;;;;;9.60;65.90;102399.22;5048082;27;103728;-50
2022/02/14 07:03:06;;;;;;;;;;;;;;;9.60;66.23;102391.88;5034829;27;102575;-50
2022/02/14 07:05:33;;;;;;;;;;;;;;;9.60;66.13;102396.50;5044365;27;103849;-50
2022/02/14 07:07:59;;;;;;;;;;;;;;;9.59;65.66;102394.81;5040156;27;102609;-50
2022/02/14 07:10:26;;;;;;;;;;;;;;;9.60;66.16;102388.34;5042418;27;103942;-49
2022/02/14 07:12:52;;;;;;;;;;;;;;;9.60;66.39;102386.44;5045552;27;102250;-49
2022/02/14 07:15:21;;;;;;;;;;;;;;;9.60;65.98;102382.91;5043650;27;102071;-49
2022/02/14 07:17:52;;;;;;;;;;;;;;;9.60;65.85;102380.19;5052105;27;102361;-50
2022/02/14 07:20:19;;;;;;;;;;;;;;;9.58;65.90;102377.66;5044311;27;104229;-49
2022/02/14 07:22:46;;;;;;;;;;;;;;;9.59;66.17;102378.50;5050836;27;102418;-50
2022/02/14 07:25:13;;;;;;;;;;;;;;;9.58;65.75;102372.22;5042468;27;103080;-49
2022/02/14 07:27:42;;;;;;;;;;;;;;;9.58;66.28;102371.41;5041782;27;102274;-50
2022/02/14 07:30:10;;;;;;;;;;;;;;;9.59;66.03;102378.50;5039807;27;103679;-50
2022/02/14 07:32:36;;;;;;;;;;;;;;;9.57;66.10;102376.00;5043731;27;102090;-49
2022/02/14 07:35:04;;;;;;;;;;;;;;;9.58;65.68;102374.94;5045309;27;102617;-49
2022/02/14 07:37:33;;;;;;;;;;;;;;;9.58;65.71;102376.84;5040548;27;102755;-49
2022/02/14 07:40:00;;;;;;;;;;;;;;;9.57;66.17;102370.56;5034586;27;104545;-49
2022/02/14 07:42:27;;;;;;;;;;;;;;;9.58;66.11;102365.97;5041992;27;102220;-49
2022/02/14 07:44:53;;;;;;;;;;;;;;;9.58;66.26;102374.13;5039609;27;102242;-49
2022/02/14 07:47:19;;;;;;;;;;;;;;;9.57;66.17;102372.47;5037735;27;102636;-50
2022/02/14 07:49:45;;;;;;;;;;;;;;;9.57;66.24;102375.19;5033668;27;103552;-50
2022/02/14 07:52:14;;;;;;;;;;;;;;;9.56;65.48;102358.06;5038715;27;106773;-52
2022/02/14 07:54:40;;;;;;;;;;;;;;;9.57;65.91;102370.56;5036230;27;102468;-50
2022/02/14 07:57:06;;;;;;;;;;;;;;;9.57;65.61;102364.31;5034929;27;105409;-49
2022/02/14 07:59:32;;;;;;;;;;;;;;;9.57;65.89;102367.03;5046475;27;103904;-50
2022/02/14 08:01:58;;;;;;;;;;;;;;;9.57;65.67;102367.03;5043302;27;102309;-49
2022/02/14 08:04:24;;;;;;;;;;;;;;;9.57;65.62;102361.59;5044344;27;102554;-49
2022/02/14 08:06:50;;;;;;;;;;;;;;;9.56;66.17;102363.50;5041153;27;102543;-49
2022/02/14 08:09:17;;;;;;;;;;;;;;;9.57;65.84;102353.44;5043248;27;104090;-49
2022/02/14 08:11:43;;;;;;;;;;;;;;;9.57;65.31;102353.44;5047393;27;102610;-49
2022/02/14 08:14:10;;;;;;;;;;;;;;;9.55;65.81;102356.38;5037998;27;102195;-50
2022/02/14 08:16:36;;;;;;;;;;;;;;;9.57;65.66;102361.59;5045005;27;102794;-49
2022/02/14 08:19:02;;;;;;;;;;;;;;;9.56;65.70;102359.94;5046103;27;103904;-50
2022/02/14 08:21:34;;;;;;;;;;;;;;;9.55;65.77;102350.94;5043119;27;102407;-49
2022/02/14 08:24:00;;;;;;;;;;;;;;;9.56;65.65;102352.63;5045371;27;102109;-49
2022/02/14 08:26:28;;;;;;;;;;;;;;;9.56;65.53;102357.22;5042402;27;103503;-49
2022/02/14 08:28:55;;;;;;;;;;;;;;;9.56;65.27;102352.63;5042234;27;103959;-50
2022/02/14 08:31:21;;;;;;;;;;;;;;;9.57;65.29;102358.88;5044596;27;104505;-50
2022/02/14 08:33:47;;;;;;;;;;;;;;;9.56;65.26;102351.78;5043142;27;103691;-49
2022/02/14 08:36:23;;;;;;;;;;;;;;;9.56;65.14;102357.22;5040456;27;102773;-49
2022/02/14 08:38:50;;;;;;;;;;;;;;;9.56;65.11;102351.78;5043363;27;103870;-49
2022/02/14 08:41:16;;;;;;;;;;;;;;;9.56;65.13;102354.50;5045519;27;102742;-49
2022/02/14 08:43:44;;;;;;;;;;;;;;;9.56;64.54;102349.91;5045651;27;103172;-49
2022/02/14 08:46:10;;;;;;;;;;;;;;;9.56;65.23;102357.22;5041870;27;102244;-50
2022/02/14 08:48:36;;;;;;;;;;;;;;;9.55;64.56;102350.09;5045720;27;103872;-50
2022/02/14 08:51:04;;;;;;;;;;;;;;;9.55;64.65;102355.53;5044496;27;102769;-50
2022/02/14 08:53:37;;;;;;;;;;;;;;;9.56;64.03;102357.22;5042052;27;102916;-50
2022/02/14 08:56:04;;;;;;;;;;;;;;;9.55;63.98;102350.09;5048858;27;102288;-50
2022/02/14 08:58:30;;;;;;;;;;;;;;;9.56;64.66;102347.19;5048733;27;103817;-50
2022/02/14 09:00:57;;;;;;;;;;;;;;;9.56;64.53;102351.78;5051710;27;102496;-49
2022/02/14 09:03:23;;;;;;;;;;;;;;;9.55;64.20;102356.38;5046133;27;102194;-49
2022/02/14 09:05:50;;;;;;;;;;;;;;;9.56;64.16;102354.50;5043496;27;102940;-49
2022/02/14 09:08:16;;;;;;;;;;;;;;;9.55;63.84;102344.66;5046835;27;103874;-50
2022/02/14 09:10:42;;;;;;;;;;;;;;;9.57;64.11;102356.16;5044904;27;102532;-49
2022/02/14 09:13:08;;;;;;;;;;;;;;;9.55;63.21;102345.50;5040000;27;102103;-51
2022/02/14 09:15:34;;;;;;;;;;;;;;;9.56;63.38;102349.06;5038986;27;102260;-50
2022/02/14 09:18:02;;;;;;;;;;;;;;;9.54;63.74;102332.16;5041570;27;104045;-49
2022/02/14 09:20:28;;;;;;;;;;;;;;;9.55;63.34;102337.34;5047226;27;102520;-50
2022/02/14 09:22:54;;;;;;;;;;;;;;;9.54;63.16;102332.16;5041691;27;103021;-50
2022/02/14 09:25:21;;;;;;;;;;;;;;;9.54;63.12;102332.16;5045521;27;102781;-50
2022/02/14 09:27:47;;;;;;;;;;;;;;;9.55;62.67;102328.34;5044502;27;103717;-49
2022/02/14 09:30:13;;;;;;;;;;;;;;;9.54;62.75;102324.00;5046249;27;102521;-49
2022/02/14 09:32:40;;;;;;;;;;;;;;;9.55;62.90;102321.03;5043699;27;102515;-49
2022/02/14 09:35:08;;;;;;;;;;;;;;;9.55;62.51;102318.31;5043184;27;102302;-49
2022/02/14 09:37:34;;;;;;;;;;;;;;;9.55;62.87;102321.03;5041258;27;104623;-50
2022/02/14 09:40:00;;;;;;;;;;;;;;;9.55;62.61;102322.94;5042998;27;103058;-50
2022/02/14 09:42:26;;;;;;;;;;;;;;;9.55;62.55;102314.78;5044852;27;102473;-49
2022/02/14 09:44:53;;;;;;;;;;;;;;;9.54;62.43;102310.41;5046257;27;102400;-49
2022/02/14 09:47:23;;;;;;;;;;;;;;;9.57;62.61;102307.22;5039644;27;103908;-50
2022/02/14 09:49:49;;;;;;;;;;;;;;;9.57;62.49;102304.53;5040269;27;102608;-49
2022/02/14 09:52:16;;;;;;;;;;;;;;;9.57;62.60;102299.09;5045643;27;103246;-49
2022/02/14 09:54:42;;;;;;;;;;;;;;;9.56;62.58;102297.44;5044108;27;102774;-50
2022/02/14 09:57:08;;;;;;;;;;;;;;;9.57;62.29;102296.38;5031635;27;103876;-49
2022/02/14 09:59:37;;;;;;;;;;;;;;;9.57;62.31;102293.66;5040872;27;102207;-49
2022/02/14 10:02:17;;;;;;;;;;;;;;;9.58;62.47;102289.88;5047667;27;102597;-49
2022/02/14 10:04:58;;;;;;;;;;;;;;;9.57;62.01;102288.22;5041685;27;102677;-49
2022/02/14 10:07:36;;;;;;;;;;;;;;;9.58;62.48;102287.16;5038469;27;108140;-49
2022/02/14 10:10:07;;;;;;;;;;;;;;;9.58;62.28;102281.72;5048804;27;102456;-50
2022/02/14 10:12:39;;;;;;;;;;;;;;;9.58;62.67;102284.44;5053300;27;102923;-50
2022/02/14 10:15:05;;;;;;;;;;;;;;;9.59;62.52;102275.22;5047517;27;102582;-49
2022/02/14 10:17:37;;;;;;;;;;;;;;;9.59;62.12;102276.06;5045400;27;103961;-49
2022/02/14 10:20:03;;;;;;;;;;;;;;;9.60;62.58;102276.88;5051057;27;102310;-50
2022/02/14 10:22:31;;;;;;;;;;;;;;;9.61;62.46;102267.66;5049913;27;102114;-49
2022/02/14 10:24:57;;;;;;;;;;;;;;;9.61;63.04;102267.66;5047281;27;102706;-49
2022/02/14 10:27:30;;;;;;;;;;;;;;;9.60;62.22;102261.41;5048615;27;103879;-49
2022/02/14 10:30:06;;;;;;;;;;;;;;;9.61;62.78;102264.94;5048338;27;102535;-49
2022/02/14 10:32:33;;;;;;;;;;;;;;;9.61;62.27;102259.50;5046272;27;102555;-50
2022/02/14 10:35:00;;;;;;;;;;;;;;;9.62;62.51;102259.28;5049870;27;102742;-49
2022/02/14 10:37:41;;;;;;;;;;;;;;;9.63;63.06;102251.97;5047311;27;104205;-49
2022/02/14 10:40:08;;;;;;;;;;;;;;;9.63;63.27;102249.25;5045336;27;102588;-49
2022/02/14 10:42:37;;;;;;;;;;;;;;;9.63;62.78;102246.53;5048899;27;102371;-49
2022/02/14 10:45:08;;;;;;;;;;;;;;;9.62;63.18;102245.69;5047036;27;102728;-50
2022/02/14 10:47:35;;;;;;;;;;;;;;;9.63;62.95;102239.22;5043335;27;103897;-49
2022/02/14 10:50:04;;;;;;;;;;;;;;;9.63;62.46;102238.38;5041581;27;102276;-49
2022/02/14 10:52:32;;;;;;;;;;;;;;;9.63;62.87;102232.94;5048311;27;102619;-49
2022/02/14 10:55:00;;;;;;;;;;;;;;;9.63;62.86;102238.38;5041457;27;102562;-49
2022/02/14 10:57:27;;;;;;;;;;;;;;;9.63;63.32;102230.22;5045414;27;103922;-50
2022/02/14 10:59:57;;;;;;;;;;;;;;;9.63;63.15;102216.63;5035926;27;102722;-51
2022/02/14 11:02:23;;;;;;;;;;;;;;;9.63;63.13;102222.91;5037172;27;102560;-49
2022/02/14 11:04:50;;;;;;;;;;;;;;;9.63;63.50;102216.63;5041101;27;102765;-49
2022/02/14 11:07:18;;;;;;;;;;;;;;;9.63;63.55;102222.91;5044366;27;103853;-50
2022/02/14 11:09:47;;;;;;;;;;;;;;;9.62;63.13;102204.91;5046568;27;102450;-49
2022/02/14 11:12:18;;;;;;;;;;;;;;;9.63;63.54;102211.19;5041887;27;102800;-49
2022/02/14 11:14:45;;;;;;;;;;;;;;;9.61;62.69;102197.81;5041902;27;102586;-49
2022/02/14 11:17:15;;;;;;;;;;;;;;;9.63;63.67;102205.78;5041059;27;103884;-49
2022/02/14 11:19:43;;;;;;;;;;;;;;;9.62;63.39;102198.66;5042597;27;102396;-49
2022/02/14 11:22:10;;;;;;;;;;;;;;;9.62;63.70;102209.53;5041322;27;102792;-49
2022/02/14 11:24:39;;;;;;;;;;;;;;;9.61;63.44;102195.09;5038627;27;102975;-50
2022/02/14 11:27:07;;;;;;;;;;;;;;;9.62;63.41;102193.22;5039268;27;103773;-50
2022/02/14 11:29:52;;;;;;;;;;;;;;;9.62;63.64;102204.09;5044109;27;103819;-49
2022/02/14 11:32:20;;;;;;;;;;;;;;;9.61;63.40;102180.69;5045116;27;102783;-49
2022/02/14 11:34:53;;;;;;;;;;;;;;;9.61;63.02;102181.50;5039622;27;102295;-49
2022/02/14 11:37:19;;;;;;;;;;;;;;;9.60;63.19;102179.03;5044627;27;105240;-50
2022/02/14 11:39:45;;;;;;;;;;;;;;;9.61;63.27;102176.06;5045892;27;102694;-49
2022/02/14 11:42:11;;;;;;;;;;;;;;;9.60;63.60;102173.59;5053971;27;103875;-49
2022/02/14 11:44:37;;;;;;;;;;;;;;;9.60;63.68;102169.00;5053377;27;102325;-49
2022/02/14 11:47:08;;;;;;;;;;;;;;;9.59;63.79;102151.03;5043485;27;104456;-49
2022/02/14 11:49:37;;;;;;;;;;;;;;;9.59;62.95;102156.47;5036162;27;105131;-49
2022/02/14 11:52:05;;;;;;;;;;;;;;;9.60;62.98;102160.00;5046125;27;103313;-49
2022/02/14 11:54:32;;;;;;;;;;;;;;;9.59;62.95;102161.91;5041631;27;103261;-49
2022/02/14 11:57:17;;;;;;;;;;;;;;;9.58;63.90;102154.78;5043595;27;103868;-49
2022/02/14 11:59:44;;;;;;;;;;;;;;;9.59;63.42;102152.91;5037849;27;102403;-49
2022/02/14 12:02:12;;;;;;;;;;;;;;;9.59;63.44;102150.19;5042250;27;102682;-49
2022/02/14 12:04:44;;;;;;;;;;;;;;;9.58;63.29;102153.97;5044979;27;106512;-49
2022/02/14 12:07:23;;;;;;;;;;;;;;;9.58;63.45;102148.53;5043004;27;104771;-50
2022/02/14 12:10:08;;;;;;;;;;;;;;;9.57;63.89;102141.44;5043280;27;102120;-50
2022/02/14 12:12:55;;;;;;;;;;;;;;;9.57;63.82;102138.72;5042824;27;102192;-49
2022/02/14 12:20:59;;;;;;;;;;;;;;;9.57;63.28;102141.44;5037916;27;102671;-49
2022/02/14 12:23:26;;;;;;;;;;;;;;;9.56;63.79;102139.78;5041509;27;102491;-50
2022/02/14 12:25:52;;;;;;;;;;;;;;;9.56;63.71;102128.91;5034086;27;102545;-49
2022/02/14 12:28:18;;;;;;;;;;;;;;;9.56;63.63;102134.34;5042046;27;103463;-49
2022/02/14 12:30:45;;;;;;;;;;;;;;;9.56;63.18;102128.91;5054238;27;102678;-50
2022/02/14 12:33:13;;;;;;;;;;;;;;;9.56;63.58;102131.63;5048708;27;102193;-49
2022/02/14 12:35:40;;;;;;;;;;;;;;;9.55;63.67;102127.25;5050873;27;102189;-49
2022/02/14 12:38:07;;;;;;;;;;;;;;;9.55;63.81;102127.25;5046078;27;103895;-50
2022/02/14 12:40:43;;;;;;;;;;;;;;;9.54;63.50;102122.88;5045231;27;102093;-50
2022/02/14 12:43:10;;;;;;;;;;;;;;;9.53;63.31;102123.94;5044801;27;102796;-50
2022/02/14 12:45:36;;;;;;;;;;;;;;;9.54;63.75;102120.16;5042859;27;102698;-49